Time;durP1;ratioP1;P1;durP2;ratioP2;P2;SDS_P1;SDS_P2;PMS_P1;PMS_P2;Temp;Humidity;BMP_temperature;BMP_pressure;BME280_temperature;BME280_humidity;BME280_pressure;Samples;Min_cycle;Max_cycle;Signal;HPM_P1;HPM_P2
2023/09/08 00:01:50;;;;;;;5.40;4.90;;;18.40;99.90;;;;;;5006734;28;20053;-95
2023/09/08 00:04:16;;;;;;;7.18;4.50;;;18.40;99.90;;;;;;4988538;28;20132;-96
2023/09/08 00:06:42;;;;;;;5.72;4.50;;;18.40;99.90;;;;;;4983766;28;20920;-95
2023/09/08 00:09:08;;;;;;;5.95;5.35;;;18.30;99.90;;;;;;4988883;28;20494;-95
2023/09/08 00:11:34;;;;;;;6.10;4.95;;;18.30;99.90;;;;;;5020916;28;20072;-94
2023/09/08 00:13:59;;;;;;;5.25;4.63;;;18.30;99.90;;;;;;4988939;28;20068;-94
2023/09/08 00:16:25;;;;;;;7.15;4.63;;;18.30;99.90;;;;;;5004880;28;20443;-94
2023/09/08 00:18:51;;;;;;;6.15;4.82;;;18.20;99.90;;;;;;5006688;28;20045;-94
2023/09/08 00:21:17;;;;;;;6.15;4.78;;;18.10;99.90;;;;;;5005798;28;20041;-94
2023/09/08 00:23:42;;;;;;;5.30;4.75;;;18.10;99.90;;;;;;5004354;28;20048;-93
2023/09/08 00:26:08;;;;;;;5.63;5.10;;;18.00;99.90;;;;;;5005937;28;20767;-93
2023/09/08 00:28:34;;;;;;;5.18;4.68;;;18.00;99.90;;;;;;5004788;28;20049;-94
2023/09/08 00:31:00;;;;;;;6.63;5.65;;;17.90;99.90;;;;;;4979309;28;20665;-94
2023/09/08 00:33:27;;;;;;;6.80;4.85;;;17.90;99.90;;;;;;4989420;28;20041;-94
2023/09/08 00:35:53;;;;;;;5.82;4.65;;;17.90;99.90;;;;;;4989194;28;20052;-93
2023/09/08 00:38:19;;;;;;;6.47;5.23;;;17.90;99.90;;;;;;5035102;28;20084;-94
2023/09/08 00:40:45;;;;;;;6.85;5.47;;;17.90;99.90;;;;;;5023704;28;21005;-94
2023/09/08 00:43:11;;;;;;;5.80;5.10;;;17.80;99.90;;;;;;5009162;28;20709;-94
2023/09/08 00:45:41;;;;;;;6.28;5.68;;;17.80;99.90;;;;;;5018560;28;20052;-94
2023/09/08 00:48:07;;;;;;;6.10;5.10;;;17.80;99.90;;;;;;5026211;28;20115;-93
2023/09/08 00:50:35;;;;;;;6.88;5.22;;;17.70;99.90;;;;;;5008636;28;20101;-93
2023/09/08 00:53:01;;;;;;;6.00;5.30;;;17.70;99.90;;;;;;5001597;28;20040;-92
2023/09/08 00:55:27;;;;;;;6.40;5.03;;;17.60;99.90;;;;;;5000881;28;20043;-93
2023/09/08 00:57:53;;;;;;;6.22;5.63;;;17.50;99.90;;;;;;5008463;28;20033;-93
2023/09/08 01:00:19;;;;;;;5.72;5.22;;;17.40;99.90;;;;;;5006988;28;20044;-93
2023/09/08 01:02:45;;;;;;;7.22;5.70;;;17.40;99.90;;;;;;4993442;28;20052;-94
2023/09/08 01:05:12;;;;;;;8.13;6.13;;;17.30;99.90;;;;;;5022368;28;20125;-93
2023/09/08 01:07:38;;;;;;;7.32;5.72;;;17.20;99.90;;;;;;5024612;28;20037;-94
2023/09/08 01:10:06;;;;;;;6.05;5.32;;;17.20;99.90;;;;;;4990908;28;20048;-94
2023/09/08 01:12:33;;;;;;;7.32;5.57;;;17.10;99.90;;;;;;5001904;28;20048;-93
2023/09/08 01:14:59;;;;;;;6.03;5.43;;;17.20;99.90;;;;;;5006898;28;20127;-94
2023/09/08 01:17:25;;;;;;;6.72;5.78;;;17.20;99.90;;;;;;5025874;28;20186;-93
2023/09/08 01:19:55;;;;;;;6.28;5.65;;;17.10;99.90;;;;;;5007454;28;20762;-93
2023/09/08 01:22:58;;;;;;;6.78;5.85;;;17.00;99.90;;;;;;5025602;28;20495;-94
2023/09/08 01:25:29;;;;;;;6.13;5.53;;;17.00;99.90;;;;;;5041484;28;20045;-93
2023/09/08 01:27:58;;;;;;;6.32;5.72;;;17.00;99.90;;;;;;5024523;28;20055;-93
2023/09/08 01:30:27;;;;;;;6.78;6.03;;;16.90;99.90;;;;;;5022014;28;20056;-93
2023/09/08 01:32:54;;;;;;;7.43;6.65;;;16.90;99.90;;;;;;5016816;28;20131;-93
2023/09/08 01:35:20;;;;;;;6.70;5.68;;;16.90;99.90;;;;;;5007714;28;20044;-93
2023/09/08 01:37:47;;;;;;;6.50;5.82;;;16.90;99.90;;;;;;5017312;28;20045;-93
2023/09/08 01:40:14;;;;;;;6.95;5.32;;;16.90;99.90;;;;;;5002527;28;20520;-94
2023/09/08 01:42:40;;;;;;;8.43;5.90;;;16.90;99.90;;;;;;5024754;28;20813;-93
2023/09/08 01:45:07;;;;;;;7.57;5.55;;;16.80;99.90;;;;;;5009027;28;20458;-94
2023/09/08 01:47:33;;;;;;;6.32;5.68;;;16.80;99.90;;;;;;5022754;28;20055;-93
2023/09/08 01:49:59;;;;;;;7.82;5.68;;;16.80;99.90;;;;;;5007019;28;20056;-93
2023/09/08 01:52:25;;;;;;;6.45;5.82;;;16.80;99.90;;;;;;5005327;28;20029;-94
2023/09/08 01:54:51;;;;;;;6.78;6.18;;;16.80;99.90;;;;;;5006860;28;20056;-94
2023/09/08 01:57:17;;;;;;;8.63;6.43;;;16.70;99.90;;;;;;5013866;28;20089;-94
2023/09/08 01:59:44;;;;;;;7.25;6.03;;;16.70;99.90;;;;;;5024823;28;20060;-93
2023/09/08 02:02:10;;;;;;;6.38;5.75;;;16.80;99.90;;;;;;5018003;28;20053;-93
2023/09/08 02:04:37;;;;;;;6.50;5.90;;;16.80;99.90;;;;;;5025568;28;20135;-94
2023/09/08 02:07:03;;;;;;;6.60;5.80;;;16.80;99.90;;;;;;5008287;28;20045;-94
2023/09/08 02:09:33;;;;;;;6.70;5.78;;;16.70;99.90;;;;;;5016707;28;20075;-93
2023/09/08 02:11:59;;;;;;;6.93;5.97;;;16.70;99.90;;;;;;5008087;28;20126;-93
2023/09/08 02:14:25;;;;;;;6.90;6.17;;;16.70;99.90;;;;;;5024065;28;20529;-94
2023/09/08 02:16:51;;;;;;;7.40;6.20;;;16.70;99.90;;;;;;5007857;28;20128;-93
2023/09/08 02:19:17;;;;;;;7.03;6.25;;;16.70;99.90;;;;;;4989223;28;20048;-94
2023/09/08 02:22:09;;;;;;;7.90;7.13;;;16.70;99.90;;;;;;4991934;28;20041;-94
2023/09/08 02:24:35;;;;;;;7.40;6.70;;;16.70;99.90;;;;;;5020633;28;20511;-95
2023/09/08 02:27:01;;;;;;;7.38;6.68;;;16.60;99.90;;;;;;5022352;28;20068;-95
2023/09/08 02:29:26;;;;;;;7.55;6.60;;;16.70;99.90;;;;;;4990647;28;20056;-94
2023/09/08 02:31:52;;;;;;;8.52;6.80;;;16.60;99.90;;;;;;5016904;28;20052;-95
2023/09/08 02:34:18;;;;;;;8.70;5.95;;;16.60;99.90;;;;;;5016380;28;20037;-95
2023/09/08 02:36:44;;;;;;;7.78;6.60;;;16.60;99.90;;;;;;5024411;28;20060;-95
2023/09/08 02:39:10;;;;;;;7.03;6.32;;;16.50;99.90;;;;;;5005052;28;20060;-95
2023/09/08 02:41:36;;;;;;;7.90;5.97;;;16.50;99.90;;;;;;4991074;28;20044;-94
2023/09/08 02:44:02;;;;;;;8.05;6.18;;;16.60;99.90;;;;;;4988455;28;20124;-95
2023/09/08 02:46:28;;;;;;;8.38;6.85;;;16.60;99.90;;;;;;4987194;28;20127;-95
2023/09/08 02:48:54;;;;;;;7.15;6.43;;;16.50;99.90;;;;;;5004193;28;20606;-94
2023/09/08 02:51:19;;;;;;;7.05;6.30;;;16.50;99.90;;;;;;5002408;28;20041;-95
2023/09/08 02:53:45;;;;;;;7.78;7.07;;;16.40;99.90;;;;;;4986128;28;20040;-95
2023/09/08 02:56:11;;;;;;;8.18;6.22;;;16.50;99.90;;;;;;5011699;28;20049;-95
2023/09/08 02:58:37;;;;;;;7.68;6.95;;;16.50;99.90;;;;;;5002799;28;20053;-96
2023/09/08 03:01:14;;;;;;;9.65;6.95;;;16.40;99.90;;;;;;5001138;28;20075;-95
2023/09/08 03:03:41;;;;;;;7.28;6.60;;;16.40;99.90;;;;;;5002742;28;20508;-94
2023/09/08 03:06:07;;;;;;;;;;;16.30;99.90;;;;;;5001250;28;20131;-95
2023/09/08 03:08:32;;;;;;;7.88;6.88;;;16.00;99.90;;;;;;5003438;28;20400;-95
2023/09/08 03:10:59;;;;;;;7.43;6.25;;;16.40;99.90;;;;;;5013090;28;20053;-96
2023/09/08 03:13:26;;;;;;;7.72;7.03;;;16.30;99.90;;;;;;5012110;28;20044;-96
2023/09/08 03:15:52;;;;;;;7.03;6.23;;;16.40;99.90;;;;;;5002508;28;20041;-95
2023/09/08 03:18:18;;;;;;;8.03;7.20;;;16.30;99.90;;;;;;5003756;28;20078;-95
2023/09/08 03:20:51;;;;;;;7.45;6.75;;;16.30;99.90;;;;;;5002373;28;20460;-95
2023/09/08 03:23:17;;;;;;;7.05;6.35;;;16.30;99.90;;;;;;5002561;28;21250;-94
2023/09/08 03:25:43;;;;;;;8.60;7.63;;;16.30;99.90;;;;;;5004065;28;20041;-95
2023/09/08 03:28:09;;;;;;;7.17;6.57;;;16.20;99.90;;;;;;5001527;28;20049;-94
2023/09/08 03:30:35;;;;;;;7.07;6.28;;;16.20;99.90;;;;;;4987440;28;20574;-94
2023/09/08 03:33:01;;;;;;;7.30;6.55;;;16.20;99.90;;;;;;5001073;28;20397;-95
2023/09/08 03:35:26;;;;;;;7.65;6.85;;;16.20;99.90;;;;;;5001940;28;20043;-95
2023/09/08 03:37:52;;;;;;;7.10;6.40;;;16.10;99.90;;;;;;4999319;28;20033;-94
2023/09/08 03:40:18;;;;;;;7.40;6.70;;;16.10;99.90;;;;;;5003024;28;20057;-95
2023/09/08 03:42:44;;;;;;;7.65;6.40;;;16.10;99.90;;;;;;5003159;28;20057;-94
2023/09/08 03:45:09;;;;;;;7.45;6.60;;;16.00;99.90;;;;;;5003171;28;20091;-95
2023/09/08 03:47:35;;;;;;;10.00;6.45;;;16.10;99.90;;;;;;5001047;28;20116;-94
2023/09/08 03:50:01;;;;;;;9.52;7.05;;;16.10;99.90;;;;;;4985306;28;20045;-95
2023/09/08 03:52:27;;;;;;;7.47;6.78;;;16.10;99.90;;;;;;5001242;28;20046;-94
2023/09/08 03:54:52;;;;;;;7.63;6.82;;;16.10;99.90;;;;;;4986902;28;20729;-95
2023/09/08 03:57:18;;;;;;;7.40;6.53;;;16.10;99.90;;;;;;5001902;28;20102;-96
2023/09/08 03:59:44;;;;;;;7.35;6.65;;;16.10;99.90;;;;;;4986074;28;20128;-94
2023/09/08 04:02:10;;;;;;;7.53;6.82;;;16.00;99.90;;;;;;5001994;28;20053;-95
2023/09/08 04:04:35;;;;;;;8.52;6.80;;;16.00;99.90;;;;;;4976194;28;20103;-95
2023/09/08 04:07:46;;;;;;;7.55;6.72;;;16.00;99.90;;;;;;4987354;28;20444;-94
2023/09/08 04:10:13;;;;;;;8.68;7.78;;;15.60;99.90;;;;;;5003332;28;20042;-95
2023/09/08 04:12:46;;;;;;;7.68;6.75;;;15.90;99.90;;;;;;5012537;28;20053;-94
2023/09/08 04:15:12;;;;;;;8.13;7.32;;;15.90;99.90;;;;;;5000687;28;20052;-94
2023/09/08 04:17:38;;;;;;;7.13;6.43;;;15.80;99.90;;;;;;4988919;28;20045;-95
2023/09/08 04:20:05;;;;;;;7.82;7.13;;;15.80;99.90;;;;;;4991047;28;20037;-96
2023/09/08 04:22:31;;;;;;;10.38;7.22;;;15.80;99.90;;;;;;5003994;28;20052;-95
2023/09/08 04:24:57;;;;;;;7.18;6.47;;;15.80;99.90;;;;;;5023951;28;20080;-95
2023/09/08 04:27:23;;;;;;;8.35;7.50;;;15.80;99.90;;;;;;5007422;28;20079;-95
2023/09/08 04:29:49;;;;;;;8.85;7.65;;;16.00;99.90;;;;;;5006554;28;20052;-93
2023/09/08 04:32:15;;;;;;;7.82;6.97;;;15.80;99.90;;;;;;5005419;28;20041;-96
2023/09/08 04:34:42;;;;;;;7.45;6.75;;;15.80;99.90;;;;;;5006354;28;20036;-96
2023/09/08 04:37:08;;;;;;;10.80;7.57;;;15.70;99.90;;;;;;5005809;28;20033;-96
2023/09/08 04:39:34;;;;;;;9.57;7.33;;;15.70;99.90;;;;;;5009003;28;20052;-95
2023/09/08 04:42:01;;;;;;;8.35;7.55;;;15.70;99.90;;;;;;5008186;28;20504;-95
2023/09/08 04:44:26;;;;;;;8.00;6.97;;;15.60;99.90;;;;;;5002402;28;20044;-95
2023/09/08 04:46:53;;;;;;;8.82;7.82;;;15.60;99.90;;;;;;4991828;28;20043;-95
2023/09/08 04:49:19;;;;;;;8.45;7.60;;;15.50;99.90;;;;;;5017590;28;20078;-95
2023/09/08 04:51:45;;;;;;;8.30;7.50;;;15.50;99.90;;;;;;5008449;28;20033;-95
2023/09/08 04:54:11;;;;;;;8.25;7.45;;;15.50;99.90;;;;;;5009890;28;20672;-94
2023/09/08 04:56:38;;;;;;;8.80;7.90;;;15.40;99.90;;;;;;5006351;28;20045;-93
2023/09/08 04:59:03;;;;;;;9.05;7.60;;;15.40;99.90;;;;;;5039515;28;20499;-94
2023/09/08 05:01:32;;;;;;;8.52;7.32;;;15.30;99.90;;;;;;4990843;28;20044;-93
2023/09/08 05:03:59;;;;;;;8.35;7.55;;;15.30;99.90;;;;;;5009278;28;20506;-94
2023/09/08 05:06:25;;;;;;;8.65;7.50;;;15.40;99.90;;;;;;5015205;28;20032;-94
2023/09/08 05:08:51;;;;;;;8.60;7.72;;;15.40;99.90;;;;;;4993404;28;20041;-94
2023/09/08 05:11:18;;;;;;;9.27;7.88;;;15.40;99.90;;;;;;5009280;28;21021;-96
2023/09/08 05:13:46;;;;;;;7.82;7.00;;;15.40;99.90;;;;;;5021996;28;20381;-94
2023/09/08 05:16:12;;;;;;;7.90;7.20;;;15.40;99.90;;;;;;5007424;28;20750;-95
2023/09/08 05:18:39;;;;;;;7.75;7.05;;;15.40;99.90;;;;;;5020291;28;20033;-88
2023/09/08 05:21:05;;;;;;;8.70;7.35;;;15.40;99.90;;;;;;5006513;28;20564;-88
2023/09/08 05:23:31;;;;;;;8.30;7.50;;;15.50;99.90;;;;;;5016304;28;20040;-87
2023/09/08 05:25:56;;;;;;;10.93;7.88;;;15.50;99.90;;;;;;5005785;28;20041;-88
2023/09/08 05:28:22;;;;;;;8.35;7.47;;;15.50;99.90;;;;;;5018598;28;20114;-88
2023/09/08 05:30:51;;;;;;;8.07;7.38;;;15.60;99.90;;;;;;5011465;28;20111;-84
2023/09/08 05:33:17;;;;;;;10.07;7.10;;;15.70;99.90;;;;;;5022063;28;20044;-88
2023/09/08 05:35:42;;;;;;;7.50;6.80;;;15.70;99.90;;;;;;5021237;28;20505;-87
2023/09/08 05:38:08;;;;;;;9.20;7.70;;;15.70;99.90;;;;;;5001020;28;20511;-88
2023/09/08 05:40:35;;;;;;;8.25;7.45;;;15.80;99.90;;;;;;4993901;28;20103;-87
2023/09/08 05:43:00;;;;;;;8.95;7.30;;;15.80;99.90;;;;;;4991410;28;20055;-81
2023/09/08 05:45:26;;;;;;;8.00;6.95;;;16.00;99.90;;;;;;4983229;28;20040;-82
2023/09/08 05:47:54;;;;;;;8.27;7.47;;;16.00;99.90;;;;;;4964856;28;20516;-82
2023/09/08 05:50:20;;;;;;;8.65;7.85;;;16.00;99.90;;;;;;5021319;28;20111;-83
2023/09/08 05:52:46;;;;;;;8.02;6.47;;;16.10;99.90;;;;;;4988310;28;20061;-82
2023/09/08 05:55:11;;;;;;;8.52;7.63;;;16.20;99.90;;;;;;4971251;28;20047;-83
2023/09/08 05:57:40;;;;;;;8.27;7.47;;;16.30;99.90;;;;;;4982541;28;20681;-83
2023/09/08 06:00:07;;;;;;;8.13;7.32;;;16.40;99.90;;;;;;4988015;28;20044;-82
2023/09/08 06:02:33;;;;;;;8.32;7.53;;;16.60;99.90;;;;;;4966982;28;20045;-83
2023/09/08 06:04:58;;;;;;;8.63;7.72;;;16.70;99.90;;;;;;4984192;28;20096;-83
2023/09/08 06:07:24;;;;;;;8.38;7.60;;;16.80;99.90;;;;;;5003099;28;20041;-83
2023/09/08 06:09:50;;;;;;;7.82;7.07;;;16.80;99.90;;;;;;5000106;28;20049;-84
2023/09/08 06:12:18;;;;;;;7.63;6.82;;;16.90;99.90;;;;;;4989630;28;20131;-84
2023/09/08 06:14:47;;;;;;;7.72;7.03;;;17.00;99.90;;;;;;4988360;28;20121;-84
2023/09/08 06:17:12;;;;;;;9.60;7.93;;;17.10;99.90;;;;;;4996070;28;20061;-83
2023/09/08 06:19:38;;;;;;;8.32;7.50;;;17.20;99.90;;;;;;5004834;28;20041;-84
2023/09/08 06:22:55;;;;;;;8.40;7.32;;;17.30;99.90;;;;;;4977546;28;20072;-94
2023/09/08 06:26:20;;;;;;;;;;;;;;;;;;;;;
2023/09/08 06:28:52;;;;;;;8.88;7.55;;;17.50;99.90;;;;;;5036992;28;20079;-93
2023/09/08 06:31:18;;;;;;;8.43;7.60;;;17.70;99.90;;;;;;5014316;28;20049;-93
2023/09/08 06:33:44;;;;;;;9.15;7.60;;;17.90;99.90;;;;;;4981393;28;20040;-94
2023/09/08 06:36:10;;;;;;;10.13;7.78;;;18.00;99.90;;;;;;5015003;28;21458;-93
2023/09/08 06:38:41;;;;;;;8.55;7.55;;;18.10;99.90;;;;;;4996167;28;20064;-95
2023/09/08 06:41:11;;;;;;;7.57;6.80;;;18.20;99.90;;;;;;5013412;28;20076;-94
2023/09/08 06:43:37;;;;;;;8.63;6.80;;;18.30;99.90;;;;;;5012592;28;20102;-96
2023/09/08 06:46:04;;;;;;;8.33;7.43;;;18.50;99.90;;;;;;5005761;28;20373;-95
2023/09/08 06:48:30;;;;;;;8.13;7.18;;;18.70;99.90;;;;;;5021419;28;20051;-94
2023/09/08 06:50:56;;;;;;;8.20;6.80;;;19.10;99.90;;;;;;5000498;28;20046;-95
2023/09/08 06:53:25;;;;;;;7.50;6.80;;;19.30;99.90;;;;;;5011982;28;20052;-96
2023/09/08 06:55:51;;;;;;;8.50;7.57;;;19.50;99.90;;;;;;5002126;28;20463;-95
2023/09/08 06:58:20;;;;;;;11.00;7.07;;;19.80;99.90;;;;;;5018831;28;20033;-95
2023/09/08 07:00:46;;;;;;;8.82;7.40;;;20.00;99.90;;;;;;5023787;28;20045;-96
2023/09/08 07:03:12;;;;;;;7.72;7.03;;;20.40;99.90;;;;;;5015892;28;20432;-95
2023/09/08 07:05:42;;;;;;;7.63;6.82;;;20.60;99.90;;;;;;5017356;28;20044;-94
2023/09/08 07:08:08;;;;;;;8.48;7.45;;;20.90;99.90;;;;;;4999108;28;20102;-93
2023/09/08 07:10:37;;;;;;;7.10;6.30;;;21.40;99.90;;;;;;5007482;28;20041;-95
2023/09/08 07:13:04;;;;;;;7.18;6.30;;;21.70;99.90;;;;;;5013185;28;20048;-94
2023/09/08 07:15:47;;;;;;;7.00;6.30;;;21.80;99.90;;;;;;5006966;28;20029;-95
2023/09/08 07:18:13;;;;;;;6.43;5.80;;;22.10;99.90;;;;;;5019593;28;20060;-94
2023/09/08 07:20:38;;;;;;;7.47;6.07;;;22.80;99.90;;;;;;5008968;28;20037;-95
2023/09/08 07:23:05;;;;;;;6.22;5.63;;;23.20;99.90;;;;;;5023597;28;20404;-95
2023/09/08 07:25:31;;;;;;;7.03;6.15;;;23.10;99.90;;;;;;5011544;28;20037;-95
2023/09/08 07:27:57;;;;;;;6.68;6.07;;;23.00;99.90;;;;;;5005606;28;20045;-96
2023/09/08 07:30:28;;;;;;;6.30;4.83;;;22.90;99.90;;;;;;5013959;28;20054;-96
2023/09/08 07:32:54;;;;;;;6.38;5.10;;;22.90;99.90;;;;;;5016339;28;20090;-93
2023/09/08 07:35:20;;;;;;;7.17;4.93;;;23.20;99.90;;;;;;5004286;28;20440;-95
2023/09/08 07:37:47;;;;;;;6.40;5.60;;;23.80;99.90;;;;;;5313789;23;20085;-96
2023/09/08 07:40:13;;;;;;;6.20;5.30;;;25.10;99.90;;;;;;5060448;28;20622;-95
2023/09/08 07:42:39;;;;;;;5.77;5.17;;;26.00;99.90;;;;;;5066184;28;20096;-96
2023/09/08 07:45:05;;;;;;;6.40;4.90;;;26.90;99.90;;;;;;5066846;28;20047;-95
2023/09/08 07:47:31;;;;;;;6.15;4.65;;;27.70;99.90;;;;;;5062164;28;20097;-92
2023/09/08 07:50:22;;;;;;;4.47;4.03;;;27.90;99.90;;;;;;5044964;28;20626;-91
2023/09/08 07:52:50;;;;;;;4.15;3.63;;;27.90;99.90;;;;;;5078205;28;20039;-93
2023/09/08 07:55:16;;;;;;;4.03;3.65;;;28.20;99.90;;;;;;5066330;28;20135;-92
2023/09/08 07:57:43;;;;;;;4.15;3.53;;;28.30;99.90;;;;;;5058531;28;20145;-92
2023/09/08 08:00:12;;;;;;;4.57;3.65;;;28.90;99.90;;;;;;5068595;28;20387;-92
2023/09/08 08:02:45;;;;;;;4.95;3.72;;;29.50;99.90;;;;;;5070160;28;20036;-91
2023/09/08 08:05:11;;;;;;;5.35;3.70;;;30.10;99.90;;;;;;5064129;28;20044;-92
2023/09/08 08:07:39;;;;;;;5.07;3.60;;;30.60;99.90;;;;;;5070337;28;20096;-92
2023/09/08 08:10:06;;;;;;;4.05;3.65;;;30.90;99.90;;;;;;5059000;28;20822;-93
2023/09/08 08:12:32;;;;;;;3.60;3.08;;;31.40;99.90;;;;;;5045386;28;20040;-92
2023/09/08 08:14:58;;;;;;;4.43;3.60;;;31.70;98.50;;;;;;5064501;28;20091;-94
2023/09/08 08:17:26;;;;;;;5.50;3.35;;;31.90;96.80;;;;;;5064165;28;20031;-95
2023/09/08 08:19:52;;;;;;;4.75;3.17;;;32.20;95.70;;;;;;5077871;28;20035;-94
2023/09/08 08:22:18;;;;;;;4.38;3.40;;;32.10;94.40;;;;;;5059631;28;20044;-95
2023/09/08 08:24:44;;;;;;;4.68;3.63;;;32.30;93.90;;;;;;5074302;28;20308;-94
2023/09/08 08:27:10;;;;;;;5.10;3.22;;;32.40;93.40;;;;;;5078793;28;20150;-94
2023/09/08 08:29:36;;;;;;;3.60;3.00;;;32.40;92.90;;;;;;5045916;28;20122;-94
2023/09/08 08:32:02;;;;;;;5.55;2.97;;;32.40;92.40;;;;;;5072233;28;20036;-88
2023/09/08 08:34:28;;;;;;;10.07;3.20;;;32.30;91.90;;;;;;5051085;28;20039;-87
2023/09/08 08:36:57;;;;;;;3.65;3.08;;;32.40;92.20;;;;;;5058834;28;20128;-90
2023/09/08 08:39:31;;;;;;;3.33;2.75;;;32.20;91.20;;;;;;5051344;28;20146;-96
2023/09/08 08:44:50;;;;;;;2.90;2.53;;;31.80;91.90;;;;;;5067520;28;20045;-95
2023/09/08 08:47:19;;;;;;;4.40;2.70;;;31.50;92.10;;;;;;5040465;28;20158;-95
2023/09/08 08:49:48;;;;;;;2.22;2.03;;;31.00;91.80;;;;;;5044825;28;20395;-95
2023/09/08 08:52:15;;;;;;;3.60;2.50;;;30.50;92.70;;;;;;5039608;28;20095;-94
2023/09/08 08:54:42;;;;;;;3.30;2.30;;;30.20;92.80;;;;;;5020788;28;20049;-94
2023/09/08 08:57:09;;;;;;;3.65;2.33;;;29.80;93.00;;;;;;5033477;28;20119;-94
2023/09/08 08:59:35;;;;;;;;;;;29.40;93.80;;;;;;5038838;28;20056;-94
2023/09/08 09:02:08;;;;;;;2.72;2.40;;;29.10;93.60;;;;;;5036551;28;19916;-95
2023/09/08 09:04:41;;;;;;;7.72;2.88;;;28.90;94.80;;;;;;5034445;28;20272;-95
2023/09/08 09:07:07;;;;;;;3.28;2.42;;;28.70;95.30;;;;;;5054373;28;20137;-93
2023/09/08 09:09:34;;;;;;;;;;;28.70;96.10;;;;;;5012628;28;20395;-93
2023/09/08 09:12:02;;;;;;;2.70;2.13;;;28.60;94.60;;;;;;5036251;28;19917;-93
2023/09/08 09:14:37;;;;;;;2.83;2.53;;;28.60;96.90;;;;;;5022346;28;20536;-93
2023/09/08 09:17:05;;;;;;;2.97;2.30;;;28.60;96.80;;;;;;5054627;28;20032;-93
2023/09/08 09:19:31;;;;;;;4.05;2.55;;;28.50;97.00;;;;;;5061903;28;20620;-94
2023/09/08 09:22:03;;;;;;;2.85;2.22;;;28.50;96.60;;;;;;5059539;28;20044;-95
2023/09/08 09:24:38;;;;;;;5.80;2.50;;;28.50;97.00;;;;;;5062613;28;20501;-93
2023/09/08 09:27:06;;;;;;;2.95;2.20;;;28.50;96.70;;;;;;5049683;28;20040;-92
2023/09/08 09:29:33;;;;;;;3.35;2.42;;;28.50;97.10;;;;;;5061582;27;20036;-94
2023/09/08 09:32:09;;;;;;;3.38;2.50;;;28.50;97.10;;;;;;5077452;28;20502;-95
2023/09/08 09:34:35;;;;;;;7.47;2.95;;;28.60;97.40;;;;;;5078110;28;20071;-95
2023/09/08 09:37:05;;;;;;;3.25;2.50;;;28.60;98.00;;;;;;5061440;28;20086;-94
2023/09/08 09:39:30;;;;;;;4.80;2.20;;;28.60;98.50;;;;;;5064147;28;20051;-94
2023/09/08 09:41:57;;;;;;;3.83;2.53;;;28.70;98.10;;;;;;5074104;28;20044;-92
2023/09/08 09:44:23;;;;;;;;;;;28.70;97.80;;;;;;5062104;28;20067;-93
2023/09/08 09:46:52;;;;;;;3.25;2.30;;;28.80;97.80;;;;;;5072392;28;19966;-93
2023/09/08 09:49:18;;;;;;;3.78;2.40;;;28.80;98.10;;;;;;5069924;28;20028;-94
2023/09/08 09:51:52;;;;;;;3.28;2.45;;;28.90;98.10;;;;;;5067142;28;20110;-94
2023/09/08 09:54:19;;;;;;;7.82;2.50;;;28.90;97.70;;;;;;5084571;27;20075;-85
2023/09/08 09:56:47;;;;;;;3.15;2.78;;;29.10;98.10;;;;;;5071057;28;20039;-93
2023/09/08 09:59:13;;;;;;;3.58;2.70;;;29.10;97.90;;;;;;5063687;28;20547;-92
2023/09/08 10:01:41;;;;;;;5.13;2.47;;;29.20;98.20;;;;;;5071138;28;20039;-92
2023/09/08 10:04:06;;;;;;;2.80;2.03;;;29.20;97.80;;;;;;5074041;28;20043;-92
2023/09/08 10:06:34;;;;;;;2.92;2.15;;;29.30;97.80;;;;;;5072218;28;20158;-92
2023/09/08 10:09:04;;;;;;;5.57;2.08;;;29.30;97.50;;;;;;5062434;28;20447;-93
2023/09/08 10:11:34;;;;;;;3.55;2.25;;;29.40;97.50;;;;;;5060256;28;20766;-92
2023/09/08 10:14:00;;;;;;;4.72;1.85;;;29.40;96.90;;;;;;5074778;28;20474;-93
2023/09/08 10:16:33;;;;;;;4.28;2.38;;;29.50;96.80;;;;;;5039993;28;20031;-91
2023/09/08 10:19:00;;;;;;;5.55;2.42;;;29.50;96.00;;;;;;5066778;28;20036;-92
2023/09/08 10:21:29;;;;;;;3.22;2.25;;;29.50;96.60;;;;;;5075377;28;20105;-91
2023/09/08 10:24:17;;;;;;;2.50;2.00;;;29.60;96.60;;;;;;5076855;28;20036;-93
2023/09/08 10:26:46;;;;;;;5.05;2.35;;;29.70;96.20;;;;;;5093669;28;20035;-92
2023/09/08 10:29:13;;;;;;;6.20;2.20;;;29.80;96.10;;;;;;5076152;28;20486;-92
2023/09/08 10:31:39;;;;;;;6.95;2.50;;;29.80;95.90;;;;;;5078842;28;20038;-91
2023/09/08 10:34:06;;;;;;;10.90;3.13;;;29.80;96.00;;;;;;5077573;28;20094;-92
2023/09/08 10:36:34;;;;;;;4.80;2.20;;;30.00;96.30;;;;;;5071500;28;20515;-91
2023/09/08 10:39:30;;;;;;;3.72;1.90;;;30.10;96.10;;;;;;5068249;28;20044;-92
2023/09/08 10:42:20;;;;;;;4.75;2.10;;;30.20;95.80;;;;;;5061907;28;20118;-92
2023/09/08 10:44:51;;;;;;;2.78;2.22;;;30.20;95.30;;;;;;5093330;28;20085;-93
2023/09/08 10:47:24;;;;;;;4.18;2.30;;;30.20;95.80;;;;;;5087787;28;20036;-92
2023/09/08 10:49:53;;;;;;;4.78;2.20;;;30.40;96.00;;;;;;5065698;28;20036;-92
2023/09/08 10:52:22;;;;;;;2.95;2.40;;;30.30;96.20;;;;;;5065694;28;20084;-94
2023/09/08 10:54:49;;;;;;;3.05;2.17;;;30.40;95.30;;;;;;5073153;28;20116;-94
2023/09/08 10:57:20;;;;;;;3.67;2.42;;;30.40;95.70;;;;;;5059391;28;20027;-91
2023/09/08 11:00:01;;;;;;;3.03;2.22;;;30.30;95.20;;;;;;5073813;28;20032;-93
2023/09/08 11:02:41;;;;;;;2.92;2.35;;;30.40;95.10;;;;;;5071681;28;20036;-92
2023/09/08 11:05:14;;;;;;;3.28;2.25;;;30.50;94.80;;;;;;5075229;28;20039;-92
2023/09/08 11:07:42;;;;;;;2.58;2.00;;;30.60;94.80;;;;;;5061589;28;20868;-93
2023/09/08 11:10:09;;;;;;;3.85;2.03;;;30.60;94.70;;;;;;5069434;28;20612;-92
2023/09/08 11:12:35;;;;;;;4.45;2.10;;;30.70;94.00;;;;;;5042822;28;20031;-91
2023/09/08 11:15:04;;;;;;;;;;;30.80;94.40;;;;;;5033039;28;20575;-94
2023/09/08 11:17:34;;;;;;;2.70;1.95;;;30.70;92.40;;;;;;5073714;28;20681;-92
2023/09/08 11:20:03;;;;;;;3.80;1.90;;;30.80;94.10;;;;;;5054064;28;20051;-91
2023/09/08 11:22:29;;;;;;;2.60;2.10;;;30.90;94.70;;;;;;5076834;28;20044;-92
2023/09/08 11:24:56;;;;;;;3.00;2.35;;;31.00;94.10;;;;;;5057129;28;20075;-92
2023/09/08 11:27:23;;;;;;;2.13;1.90;;;31.10;93.60;;;;;;5060927;28;20043;-90
2023/09/08 11:29:50;;;;;;;2.67;1.80;;;31.00;93.40;;;;;;5075190;28;20053;-92
2023/09/08 11:32:16;;;;;;;3.42;1.98;;;31.00;93.60;;;;;;5062880;28;20036;-92
2023/09/08 11:34:42;;;;;;;3.65;2.30;;;31.10;93.00;;;;;;5062145;28;20108;-92
2023/09/08 11:37:13;;;;;;;4.25;1.90;;;31.20;93.00;;;;;;5035133;28;20040;-93
2023/09/08 11:39:46;;;;;;;2.72;2.17;;;31.20;92.10;;;;;;5060389;28;20055;-92
2023/09/08 11:42:14;;;;;;;2.63;1.83;;;31.20;92.50;;;;;;5051056;28;20463;-92
2023/09/08 11:44:40;;;;;;;2.58;2.03;;;31.20;92.00;;;;;;5065079;28;20039;-93
2023/09/08 11:47:09;;;;;;;3.45;1.80;;;31.20;92.50;;;;;;5061360;28;20066;-92
2023/09/08 11:49:39;;;;;;;3.65;2.00;;;31.20;93.10;;;;;;5060311;28;20638;-91
2023/09/08 11:52:06;;;;;;;3.08;1.80;;;31.20;92.80;;;;;;5064516;28;20043;-91
2023/09/08 11:54:31;;;;;;;;;;;31.10;92.80;;;;;;5070312;28;20088;-95
2023/09/08 11:57:00;;;;;;;2.88;2.10;;;31.00;91.50;;;;;;5053824;28;19920;-93
2023/09/08 11:59:28;;;;;;;3.40;1.75;;;31.00;92.10;;;;;;5070279;28;20042;-92
2023/09/08 12:01:56;;;;;;;3.38;1.77;;;31.00;92.30;;;;;;5078597;28;20858;-94
2023/09/08 12:04:21;;;;;;;2.78;2.00;;;31.00;92.00;;;;;;5076286;28;20079;-92
2023/09/08 12:06:49;;;;;;;2.63;2.03;;;30.90;91.00;;;;;;5041387;28;20040;-92
2023/09/08 12:09:16;;;;;;;3.35;2.05;;;30.80;90.00;;;;;;5062049;28;20043;-92
2023/09/08 12:11:42;;;;;;;3.25;2.00;;;30.90;90.60;;;;;;5062765;28;20040;-92
2023/09/08 12:14:10;;;;;;;;;;;30.70;89.40;;;;;;5075379;28;20102;-94
2023/09/08 12:16:36;;;;;;;2.33;1.70;;;30.60;87.50;;;;;;5073098;28;19916;-94
2023/09/08 12:19:02;;;;;;;4.95;1.75;;;30.50;88.70;;;;;;5038173;28;20044;-89
2023/09/08 12:21:27;;;;;;;3.03;1.60;;;30.60;89.30;;;;;;5050860;28;20051;-93
2023/09/08 12:23:54;;;;;;;3.25;1.73;;;30.50;88.50;;;;;;5053829;28;20039;-91
2023/09/08 12:26:20;;;;;;;;;;;30.50;89.40;;;;;;5068694;28;20050;-91
2023/09/08 12:28:47;;;;;;;3.33;1.85;;;30.40;86.40;;;;;;5071757;28;20013;-90
2023/09/08 12:31:15;;;;;;;2.30;1.70;;;30.40;88.90;;;;;;5064011;28;20078;-89
2023/09/08 12:33:43;;;;;;;4.18;1.80;;;30.30;87.90;;;;;;5063479;28;20386;-91
2023/09/08 12:36:19;;;;;;;5.30;2.00;;;30.40;88.50;;;;;;5069781;28;20753;-93
2023/09/08 12:38:52;;;;;;;2.30;1.53;;;30.40;88.20;;;;;;5057145;28;20044;-93
2023/09/08 12:41:18;;;;;;;4.30;1.90;;;30.40;89.00;;;;;;5049298;28;20529;-92
2023/09/08 12:43:45;;;;;;;1.98;1.70;;;30.30;88.50;;;;;;5062338;28;20047;-94
2023/09/08 12:46:35;;;;;;;3.58;1.83;;;30.20;87.50;;;;;;5063402;28;20078;-93
2023/09/08 12:49:01;;;;;;;2.78;2.08;;;30.10;86.80;;;;;;5079610;28;20039;-93
2023/09/08 12:51:27;;;;;;;2.80;1.98;;;30.20;87.10;;;;;;5069802;28;20707;-94
2023/09/08 12:53:52;;;;;;;3.83;1.75;;;30.20;87.60;;;;;;5078534;28;20039;-92
2023/09/08 12:56:18;;;;;;;2.38;1.88;;;30.20;89.30;;;;;;5062477;28;20075;-93
2023/09/08 12:58:44;;;;;;;2.65;1.88;;;30.10;88.60;;;;;;5063757;28;20118;-93